KASG

Springdale Municipal Airport

Springdale, Arkansas, USA
METAR KASG 151248Z 27004KT 10SM BKN043 00/M03 A3019
Observed Flight Rules
Dec-15 @ 12:48 UTC (an hour ago) Visual Flight Rules
Wind Visibility Clouds
270° at 4 knots 10 miles
  • Broken at 4,300' AGL
Temperatures Readings
Current 0°C / 32°F
Dewpoint -3°C / 27°F
Humidity 80%
Altimeter 30.19" Hg
Pressure 1022 hPa
Elevation 412
METAR KASG 151248Z 27004KT 10SM BKN043 00/M03 A3019
Observed Flight Rules
Dec-15 @ 12:48 UTC
(an hour ago)
VFR
Wind Visibility
270° at 4 knots 10 miles
Clouds
  • Broken at 4,300' AGL
Temperature Dewpoint
0°C / 32°F -3°C / 27°F
Humidity Altimeter Pressure
80% 30.19" Hg 1022 hPa